sensor_id;sensor_type;location;lat;lon;timestamp;P1;durP1;ratioP1;P2;durP2;ratioP2
9208;SDS011;4639;48.862;9.188;2022-11-25T00:00:22;20.58;;;9.85;;
9208;SDS011;4639;48.862;9.188;2022-11-25T00:02:47;16.15;;;9.70;;
9208;SDS011;4639;48.862;9.188;2022-11-25T00:05:13;20.45;;;9.50;;
9208;SDS011;4639;48.862;9.188;2022-11-25T00:07:38;17.50;;;9.95;;
9208;SDS011;4639;48.862;9.188;2022-11-25T00:10:04;17.20;;;9.85;;
9208;SDS011;4639;48.862;9.188;2022-11-25T00:12:30;19.42;;;9.95;;
9208;SDS011;4639;48.862;9.188;2022-11-25T00:14:56;21.15;;;10.75;;
9208;SDS011;4639;48.862;9.188;2022-11-25T00:17:22;18.13;;;10.45;;
9208;SDS011;4639;48.862;9.188;2022-11-25T00:19:47;20.17;;;10.50;;
9208;SDS011;4639;48.862;9.188;2022-11-25T00:22:14;17.83;;;9.98;;
9208;SDS011;4639;48.862;9.188;2022-11-25T00:24:40;20.83;;;11.65;;
9208;SDS011;4639;48.862;9.188;2022-11-25T00:27:07;24.45;;;10.68;;
9208;SDS011;4639;48.862;9.188;2022-11-25T00:29:32;21.52;;;10.73;;
9208;SDS011;4639;48.862;9.188;2022-11-25T00:31:58;22.35;;;11.13;;
9208;SDS011;4639;48.862;9.188;2022-11-25T00:34:24;24.20;;;10.48;;
9208;SDS011;4639;48.862;9.188;2022-11-25T00:36:50;21.65;;;10.48;;
9208;SDS011;4639;48.862;9.188;2022-11-25T00:39:17;18.13;;;10.18;;
9208;SDS011;4639;48.862;9.188;2022-11-25T00:41:44;18.98;;;10.15;;
9208;SDS011;4639;48.862;9.188;2022-11-25T00:44:29;18.80;;;10.27;;
9208;SDS011;4639;48.862;9.188;2022-11-25T00:47:04;18.52;;;9.48;;
9208;SDS011;4639;48.862;9.188;2022-11-25T00:49:31;21.80;;;9.88;;
9208;SDS011;4639;48.862;9.188;2022-11-25T00:51:56;18.60;;;9.57;;
9208;SDS011;4639;48.862;9.188;2022-11-25T00:54:22;19.08;;;10.25;;
9208;SDS011;4639;48.862;9.188;2022-11-25T00:56:48;15.45;;;9.77;;
9208;SDS011;4639;48.862;9.188;2022-11-25T00:59:14;18.38;;;9.88;;
9208;SDS011;4639;48.862;9.188;2022-11-25T01:01:40;20.83;;;10.48;;
9208;SDS011;4639;48.862;9.188;2022-11-25T01:04:06;18.98;;;10.02;;
9208;SDS011;4639;48.862;9.188;2022-11-25T01:06:32;16.58;;;9.98;;
9208;SDS011;4639;48.862;9.188;2022-11-25T01:08:59;17.23;;;9.18;;
9208;SDS011;4639;48.862;9.188;2022-11-25T01:11:25;19.02;;;9.80;;
9208;SDS011;4639;48.862;9.188;2022-11-25T01:13:50;15.75;;;9.82;;
9208;SDS011;4639;48.862;9.188;2022-11-25T01:16:19;18.23;;;10.32;;
9208;SDS011;4639;48.862;9.188;2022-11-25T01:18:45;21.25;;;9.93;;
9208;SDS011;4639;48.862;9.188;2022-11-25T01:21:12;17.75;;;9.68;;
9208;SDS011;4639;48.862;9.188;2022-11-25T01:23:41;20.23;;;10.00;;
9208;SDS011;4639;48.862;9.188;2022-11-25T01:26:09;18.05;;;10.13;;
9208;SDS011;4639;48.862;9.188;2022-11-25T01:28:36;15.75;;;9.43;;
9208;SDS011;4639;48.862;9.188;2022-11-25T01:31:05;19.73;;;9.95;;
9208;SDS011;4639;48.862;9.188;2022-11-25T01:33:36;16.92;;;10.02;;
9208;SDS011;4639;48.862;9.188;2022-11-25T01:36:06;13.10;;;9.57;;
9208;SDS011;4639;48.862;9.188;2022-11-25T01:38:34;16.95;;;9.40;;
9208;SDS011;4639;48.862;9.188;2022-11-25T01:41:00;15.68;;;8.80;;
9208;SDS011;4639;48.862;9.188;2022-11-25T01:43:27;18.05;;;9.82;;
9208;SDS011;4639;48.862;9.188;2022-11-25T01:48:53;19.65;;;9.32;;
9208;SDS011;4639;48.862;9.188;2022-11-25T01:51:39;19.48;;;9.55;;
9208;SDS011;4639;48.862;9.188;2022-11-25T01:54:13;13.93;;;9.05;;
9208;SDS011;4639;48.862;9.188;2022-11-25T01:56:47;18.15;;;8.75;;
9208;SDS011;4639;48.862;9.188;2022-11-25T01:59:16;14.73;;;9.15;;
9208;SDS011;4639;48.862;9.188;2022-11-25T02:01:42;16.60;;;9.25;;
9208;SDS011;4639;48.862;9.188;2022-11-25T02:04:08;18.95;;;8.38;;
9208;SDS011;4639;48.862;9.188;2022-11-25T02:06:39;20.58;;;8.90;;
9208;SDS011;4639;48.862;9.188;2022-11-25T02:09:11;15.35;;;9.40;;
9208;SDS011;4639;48.862;9.188;2022-11-25T02:11:39;18.55;;;9.73;;
9208;SDS011;4639;48.862;9.188;2022-11-25T02:14:07;16.65;;;9.07;;
9208;SDS011;4639;48.862;9.188;2022-11-25T02:16:36;18.48;;;9.07;;
9208;SDS011;4639;48.862;9.188;2022-11-25T02:19:01;15.35;;;8.70;;
9208;SDS011;4639;48.862;9.188;2022-11-25T02:21:33;18.02;;;9.35;;
9208;SDS011;4639;48.862;9.188;2022-11-25T02:24:07;14.65;;;8.80;;
9208;SDS011;4639;48.862;9.188;2022-11-25T02:26:39;19.20;;;9.13;;
9208;SDS011;4639;48.862;9.188;2022-11-25T02:29:05;21.13;;;9.13;;
9208;SDS011;4639;48.862;9.188;2022-11-25T02:31:31;17.45;;;8.55;;
9208;SDS011;4639;48.862;9.188;2022-11-25T02:33:56;17.42;;;9.02;;
9208;SDS011;4639;48.862;9.188;2022-11-25T02:36:22;18.65;;;8.75;;
9208;SDS011;4639;48.862;9.188;2022-11-25T02:38:49;19.30;;;9.65;;
9208;SDS011;4639;48.862;9.188;2022-11-25T02:41:18;17.20;;;8.95;;
9208;SDS011;4639;48.862;9.188;2022-11-25T02:43:48;15.50;;;8.05;;
9208;SDS011;4639;48.862;9.188;2022-11-25T02:46:15;19.27;;;8.63;;
9208;SDS011;4639;48.862;9.188;2022-11-25T02:48:43;18.00;;;8.73;;
9208;SDS011;4639;48.862;9.188;2022-11-25T02:51:10;17.23;;;9.48;;
9208;SDS011;4639;48.862;9.188;2022-11-25T02:53:37;17.40;;;8.88;;
9208;SDS011;4639;48.862;9.188;2022-11-25T02:56:04;15.95;;;9.35;;
9208;SDS011;4639;48.862;9.188;2022-11-25T02:58:30;15.63;;;8.50;;
9208;SDS011;4639;48.862;9.188;2022-11-25T03:00:55;12.65;;;7.45;;
9208;SDS011;4639;48.862;9.188;2022-11-25T03:03:21;15.52;;;8.40;;
9208;SDS011;4639;48.862;9.188;2022-11-25T03:05:47;14.27;;;8.32;;
9208;SDS011;4639;48.862;9.188;2022-11-25T03:08:13;15.48;;;9.10;;
9208;SDS011;4639;48.862;9.188;2022-11-25T03:10:38;15.85;;;8.98;;
9208;SDS011;4639;48.862;9.188;2022-11-25T03:13:05;17.05;;;8.45;;
9208;SDS011;4639;48.862;9.188;2022-11-25T03:15:32;14.18;;;8.65;;
9208;SDS011;4639;48.862;9.188;2022-11-25T03:17:58;17.80;;;8.13;;
9208;SDS011;4639;48.862;9.188;2022-11-25T03:20:24;16.85;;;8.60;;
9208;SDS011;4639;48.862;9.188;2022-11-25T03:22:49;19.52;;;8.75;;
9208;SDS011;4639;48.862;9.188;2022-11-25T03:25:15;13.10;;;8.07;;
9208;SDS011;4639;48.862;9.188;2022-11-25T03:27:41;13.05;;;8.23;;
9208;SDS011;4639;48.862;9.188;2022-11-25T03:30:12;13.15;;;8.45;;
9208;SDS011;4639;48.862;9.188;2022-11-25T03:32:42;16.38;;;8.43;;
9208;SDS011;4639;48.862;9.188;2022-11-25T03:35:07;16.98;;;8.38;;
9208;SDS011;4639;48.862;9.188;2022-11-25T03:37:34;15.73;;;8.18;;
9208;SDS011;4639;48.862;9.188;2022-11-25T03:40:00;14.88;;;8.23;;
9208;SDS011;4639;48.862;9.188;2022-11-25T03:42:25;13.82;;;8.60;;
9208;SDS011;4639;48.862;9.188;2022-11-25T03:44:51;18.77;;;9.57;;
9208;SDS011;4639;48.862;9.188;2022-11-25T03:47:16;15.13;;;8.85;;
9208;SDS011;4639;48.862;9.188;2022-11-25T03:49:42;17.63;;;10.02;;
9208;SDS011;4639;48.862;9.188;2022-11-25T03:52:07;16.05;;;8.85;;
9208;SDS011;4639;48.862;9.188;2022-11-25T03:54:33;17.67;;;9.95;;
9208;SDS011;4639;48.862;9.188;2022-11-25T03:56:59;15.68;;;9.70;;
9208;SDS011;4639;48.862;9.188;2022-11-25T03:59:24;16.05;;;9.00;;
9208;SDS011;4639;48.862;9.188;2022-11-25T04:01:50;15.68;;;9.73;;
9208;SDS011;4639;48.862;9.188;2022-11-25T04:04:15;16.23;;;9.82;;
9208;SDS011;4639;48.862;9.188;2022-11-25T04:06:41;15.10;;;9.07;;
9208;SDS011;4639;48.862;9.188;2022-11-25T04:09:07;15.10;;;9.35;;
9208;SDS011;4639;48.862;9.188;2022-11-25T04:11:33;15.98;;;9.57;;
9208;SDS011;4639;48.862;9.188;2022-11-25T04:14:17;16.35;;;9.25;;
9208;SDS011;4639;48.862;9.188;2022-11-25T04:16:43;16.48;;;9.30;;
9208;SDS011;4639;48.862;9.188;2022-11-25T04:19:09;19.63;;;10.52;;
9208;SDS011;4639;48.862;9.188;2022-11-25T04:21:34;20.75;;;10.95;;
9208;SDS011;4639;48.862;9.188;2022-11-25T04:24:00;24.13;;;10.00;;
9208;SDS011;4639;48.862;9.188;2022-11-25T04:26:26;19.52;;;9.75;;
9208;SDS011;4639;48.862;9.188;2022-11-25T04:28:51;16.08;;;9.73;;
9208;SDS011;4639;48.862;9.188;2022-11-25T04:31:17;18.20;;;10.43;;
9208;SDS011;4639;48.862;9.188;2022-11-25T04:33:42;19.52;;;10.88;;
9208;SDS011;4639;48.862;9.188;2022-11-25T04:36:08;18.75;;;10.48;;
9208;SDS011;4639;48.862;9.188;2022-11-25T04:38:34;19.95;;;10.90;;
9208;SDS011;4639;48.862;9.188;2022-11-25T04:41:00;20.85;;;10.40;;
9208;SDS011;4639;48.862;9.188;2022-11-25T04:43:25;17.48;;;9.80;;
9208;SDS011;4639;48.862;9.188;2022-11-25T04:45:51;17.17;;;10.65;;
9208;SDS011;4639;48.862;9.188;2022-11-25T04:48:17;18.50;;;9.65;;
9208;SDS011;4639;48.862;9.188;2022-11-25T04:50:42;16.40;;;9.57;;
9208;SDS011;4639;48.862;9.188;2022-11-25T04:53:08;18.20;;;10.23;;
9208;SDS011;4639;48.862;9.188;2022-11-25T04:55:34;17.92;;;10.80;;
9208;SDS011;4639;48.862;9.188;2022-11-25T04:57:59;16.77;;;10.50;;
9208;SDS011;4639;48.862;9.188;2022-11-25T05:00:25;21.38;;;10.85;;
9208;SDS011;4639;48.862;9.188;2022-11-25T05:02:51;18.33;;;9.95;;
9208;SDS011;4639;48.862;9.188;2022-11-25T05:05:16;19.60;;;10.88;;
9208;SDS011;4639;48.862;9.188;2022-11-25T05:07:42;19.30;;;10.98;;
9208;SDS011;4639;48.862;9.188;2022-11-25T05:10:07;17.48;;;11.35;;
9208;SDS011;4639;48.862;9.188;2022-11-25T05:12:33;24.00;;;12.95;;
9208;SDS011;4639;48.862;9.188;2022-11-25T05:14:59;17.10;;;12.23;;
9208;SDS011;4639;48.862;9.188;2022-11-25T05:17:25;18.25;;;12.18;;
9208;SDS011;4639;48.862;9.188;2022-11-25T05:19:53;23.98;;;15.88;;
9208;SDS011;4639;48.862;9.188;2022-11-25T05:22:19;19.23;;;13.18;;
9208;SDS011;4639;48.862;9.188;2022-11-25T05:24:47;19.05;;;11.35;;
9208;SDS011;4639;48.862;9.188;2022-11-25T05:27:12;22.52;;;12.65;;
9208;SDS011;4639;48.862;9.188;2022-11-25T05:29:38;20.25;;;12.15;;
9208;SDS011;4639;48.862;9.188;2022-11-25T05:32:04;18.88;;;11.25;;
9208;SDS011;4639;48.862;9.188;2022-11-25T05:34:30;23.25;;;12.57;;
9208;SDS011;4639;48.862;9.188;2022-11-25T05:36:56;23.38;;;12.13;;
9208;SDS011;4639;48.862;9.188;2022-11-25T05:39:22;16.75;;;10.23;;
9208;SDS011;4639;48.862;9.188;2022-11-25T05:41:48;17.60;;;9.88;;
9208;SDS011;4639;48.862;9.188;2022-11-25T05:44:13;19.00;;;10.48;;
9208;SDS011;4639;48.862;9.188;2022-11-25T05:46:39;21.52;;;11.30;;
9208;SDS011;4639;48.862;9.188;2022-11-25T05:49:04;17.15;;;9.52;;
9208;SDS011;4639;48.862;9.188;2022-11-25T05:51:30;15.93;;;10.10;;
9208;SDS011;4639;48.862;9.188;2022-11-25T05:53:56;17.10;;;9.25;;
9208;SDS011;4639;48.862;9.188;2022-11-25T05:56:21;16.50;;;10.07;;
9208;SDS011;4639;48.862;9.188;2022-11-25T05:58:47;17.90;;;9.90;;
9208;SDS011;4639;48.862;9.188;2022-11-25T06:01:14;15.80;;;10.05;;
9208;SDS011;4639;48.862;9.188;2022-11-25T06:03:41;15.15;;;9.07;;
9208;SDS011;4639;48.862;9.188;2022-11-25T06:06:08;16.10;;;9.70;;
9208;SDS011;4639;48.862;9.188;2022-11-25T06:08:35;16.25;;;9.68;;
9208;SDS011;4639;48.862;9.188;2022-11-25T06:11:05;17.15;;;9.63;;
9208;SDS011;4639;48.862;9.188;2022-11-25T06:13:36;17.80;;;9.55;;
9208;SDS011;4639;48.862;9.188;2022-11-25T06:16:05;17.98;;;10.00;;
9208;SDS011;4639;48.862;9.188;2022-11-25T06:18:35;18.63;;;9.15;;
9208;SDS011;4639;48.862;9.188;2022-11-25T06:21:02;13.65;;;8.88;;
9208;SDS011;4639;48.862;9.188;2022-11-25T06:23:28;16.17;;;10.13;;
9208;SDS011;4639;48.862;9.188;2022-11-25T06:25:54;18.65;;;9.90;;
9208;SDS011;4639;48.862;9.188;2022-11-25T06:28:26;17.65;;;9.80;;
9208;SDS011;4639;48.862;9.188;2022-11-25T06:30:51;18.98;;;10.05;;
9208;SDS011;4639;48.862;9.188;2022-11-25T06:33:17;21.83;;;11.30;;
9208;SDS011;4639;48.862;9.188;2022-11-25T06:35:43;13.65;;;9.52;;
9208;SDS011;4639;48.862;9.188;2022-11-25T06:38:08;18.92;;;10.05;;
9208;SDS011;4639;48.862;9.188;2022-11-25T06:40:34;16.00;;;9.38;;
9208;SDS011;4639;48.862;9.188;2022-11-25T06:42:59;20.25;;;9.75;;
9208;SDS011;4639;48.862;9.188;2022-11-25T06:45:25;16.70;;;9.77;;
9208;SDS011;4639;48.862;9.188;2022-11-25T06:47:51;19.63;;;10.00;;
9208;SDS011;4639;48.862;9.188;2022-11-25T06:50:16;19.92;;;9.63;;
9208;SDS011;4639;48.862;9.188;2022-11-25T06:52:42;20.92;;;10.50;;
9208;SDS011;4639;48.862;9.188;2022-11-25T06:55:08;17.48;;;10.75;;
9208;SDS011;4639;48.862;9.188;2022-11-25T06:57:33;14.98;;;10.35;;
9208;SDS011;4639;48.862;9.188;2022-11-25T06:59:59;20.95;;;10.15;;
9208;SDS011;4639;48.862;9.188;2022-11-25T07:02:25;17.83;;;11.70;;
9208;SDS011;4639;48.862;9.188;2022-11-25T07:04:50;17.40;;;10.35;;
9208;SDS011;4639;48.862;9.188;2022-11-25T07:07:16;21.45;;;10.57;;
9208;SDS011;4639;48.862;9.188;2022-11-25T07:09:41;18.30;;;10.88;;
9208;SDS011;4639;48.862;9.188;2022-11-25T07:12:07;14.60;;;9.60;;
9208;SDS011;4639;48.862;9.188;2022-11-25T07:14:32;17.17;;;10.23;;
9208;SDS011;4639;48.862;9.188;2022-11-25T07:16:58;15.95;;;9.70;;
9208;SDS011;4639;48.862;9.188;2022-11-25T07:19:24;19.52;;;10.18;;
9208;SDS011;4639;48.862;9.188;2022-11-25T07:21:49;16.00;;;10.38;;
9208;SDS011;4639;48.862;9.188;2022-11-25T07:24:15;19.20;;;10.07;;
9208;SDS011;4639;48.862;9.188;2022-11-25T07:26:42;16.38;;;10.05;;
9208;SDS011;4639;48.862;9.188;2022-11-25T07:29:10;22.35;;;10.85;;
9208;SDS011;4639;48.862;9.188;2022-11-25T07:31:39;15.88;;;9.77;;
9208;SDS011;4639;48.862;9.188;2022-11-25T07:34:09;22.45;;;11.05;;
9208;SDS011;4639;48.862;9.188;2022-11-25T07:36:37;19.17;;;9.85;;
9208;SDS011;4639;48.862;9.188;2022-11-25T07:39:04;16.35;;;9.55;;
9208;SDS011;4639;48.862;9.188;2022-11-25T07:41:32;18.95;;;9.30;;
9208;SDS011;4639;48.862;9.188;2022-11-25T07:43:59;23.80;;;10.35;;
9208;SDS011;4639;48.862;9.188;2022-11-25T07:46:28;18.60;;;10.45;;
9208;SDS011;4639;48.862;9.188;2022-11-25T07:49:00;23.02;;;11.30;;
9208;SDS011;4639;48.862;9.188;2022-11-25T07:51:29;16.67;;;10.88;;
9208;SDS011;4639;48.862;9.188;2022-11-25T07:53:57;18.67;;;9.85;;
9208;SDS011;4639;48.862;9.188;2022-11-25T07:56:25;21.45;;;10.55;;
9208;SDS011;4639;48.862;9.188;2022-11-25T07:58:51;18.98;;;11.07;;
9208;SDS011;4639;48.862;9.188;2022-11-25T08:01:18;22.15;;;13.50;;
9208;SDS011;4639;48.862;9.188;2022-11-25T08:03:44;21.55;;;10.55;;
9208;SDS011;4639;48.862;9.188;2022-11-25T08:06:12;20.40;;;9.77;;
9208;SDS011;4639;48.862;9.188;2022-11-25T08:08:40;25.13;;;10.85;;
9208;SDS011;4639;48.862;9.188;2022-11-25T08:11:07;17.10;;;9.93;;
9208;SDS011;4639;48.862;9.188;2022-11-25T08:13:38;21.50;;;9.93;;
9208;SDS011;4639;48.862;9.188;2022-11-25T08:16:04;16.23;;;8.68;;
9208;SDS011;4639;48.862;9.188;2022-11-25T08:18:30;14.02;;;8.63;;
9208;SDS011;4639;48.862;9.188;2022-11-25T08:21:00;17.63;;;8.88;;
9208;SDS011;4639;48.862;9.188;2022-11-25T08:23:28;15.43;;;8.20;;
9208;SDS011;4639;48.862;9.188;2022-11-25T08:25:54;16.15;;;8.65;;
9208;SDS011;4639;48.862;9.188;2022-11-25T08:28:20;12.65;;;7.20;;
9208;SDS011;4639;48.862;9.188;2022-11-25T08:30:46;14.88;;;8.10;;
9208;SDS011;4639;48.862;9.188;2022-11-25T08:33:12;15.80;;;7.63;;
9208;SDS011;4639;48.862;9.188;2022-11-25T08:35:37;19.30;;;9.07;;
9208;SDS011;4639;48.862;9.188;2022-11-25T08:38:07;16.65;;;9.63;;
9208;SDS011;4639;48.862;9.188;2022-11-25T08:40:34;14.23;;;8.55;;
9208;SDS011;4639;48.862;9.188;2022-11-25T08:43:00;14.13;;;8.32;;
9208;SDS011;4639;48.862;9.188;2022-11-25T08:45:27;13.65;;;8.07;;
9208;SDS011;4639;48.862;9.188;2022-11-25T08:47:53;17.58;;;8.48;;
9208;SDS011;4639;48.862;9.188;2022-11-25T08:50:19;18.08;;;8.43;;
9208;SDS011;4639;48.862;9.188;2022-11-25T08:52:45;17.15;;;7.95;;
9208;SDS011;4639;48.862;9.188;2022-11-25T08:55:11;19.30;;;8.90;;
9208;SDS011;4639;48.862;9.188;2022-11-25T08:57:37;17.45;;;8.75;;
9208;SDS011;4639;48.862;9.188;2022-11-25T09:00:06;12.73;;;7.53;;
9208;SDS011;4639;48.862;9.188;2022-11-25T09:02:32;27.27;;;8.70;;
9208;SDS011;4639;48.862;9.188;2022-11-25T09:04:58;19.20;;;7.78;;
9208;SDS011;4639;48.862;9.188;2022-11-25T09:07:24;16.92;;;7.80;;
9208;SDS011;4639;48.862;9.188;2022-11-25T09:09:49;12.10;;;7.35;;
9208;SDS011;4639;48.862;9.188;2022-11-25T09:12:15;11.23;;;7.72;;
9208;SDS011;4639;48.862;9.188;2022-11-25T09:14:40;18.27;;;7.38;;
9208;SDS011;4639;48.862;9.188;2022-11-25T09:17:09;11.55;;;7.32;;
9208;SDS011;4639;48.862;9.188;2022-11-25T09:19:36;10.38;;;6.70;;
9208;SDS011;4639;48.862;9.188;2022-11-25T09:22:02;12.48;;;7.10;;
9208;SDS011;4639;48.862;9.188;2022-11-25T09:24:28;14.85;;;6.97;;
9208;SDS011;4639;48.862;9.188;2022-11-25T09:26:53;13.43;;;7.13;;
9208;SDS011;4639;48.862;9.188;2022-11-25T09:29:19;8.85;;;6.32;;
9208;SDS011;4639;48.862;9.188;2022-11-25T09:31:44;11.43;;;6.15;;
9208;SDS011;4639;48.862;9.188;2022-11-25T09:34:10;15.88;;;7.32;;
9208;SDS011;4639;48.862;9.188;2022-11-25T09:36:36;9.98;;;6.53;;
9208;SDS011;4639;48.862;9.188;2022-11-25T09:39:02;14.35;;;8.98;;
9208;SDS011;4639;48.862;9.188;2022-11-25T09:41:33;11.82;;;7.50;;
9208;SDS011;4639;48.862;9.188;2022-11-25T09:44:37;11.82;;;6.43;;
9208;SDS011;4639;48.862;9.188;2022-11-25T09:50:13;9.23;;;6.45;;
9208;SDS011;4639;48.862;9.188;2022-11-25T09:52:55;13.00;;;7.03;;
9208;SDS011;4639;48.862;9.188;2022-11-25T09:55:32;11.02;;;5.82;;
9208;SDS011;4639;48.862;9.188;2022-11-25T10:00:45;11.70;;;6.50;;
9208;SDS011;4639;48.862;9.188;2022-11-25T10:05:57;11.63;;;6.13;;
9208;SDS011;4639;48.862;9.188;2022-11-25T10:08:39;9.52;;;6.13;;
9208;SDS011;4639;48.862;9.188;2022-11-25T10:17:39;14.13;;;6.32;;
9208;SDS011;4639;48.862;9.188;2022-11-25T10:20:11;11.55;;;6.30;;
9208;SDS011;4639;48.862;9.188;2022-11-25T10:22:42;9.93;;;6.15;;
9208;SDS011;4639;48.862;9.188;2022-11-25T10:27:45;12.85;;;6.97;;
9208;SDS011;4639;48.862;9.188;2022-11-25T10:30:15;14.70;;;6.32;;
9208;SDS011;4639;48.862;9.188;2022-11-25T10:32:48;12.95;;;6.80;;
9208;SDS011;4639;48.862;9.188;2022-11-25T10:35:26;18.13;;;6.25;;
9208;SDS011;4639;48.862;9.188;2022-11-25T10:37:57;12.30;;;6.63;;
9208;SDS011;4639;48.862;9.188;2022-11-25T10:40:25;17.73;;;6.63;;
9208;SDS011;4639;48.862;9.188;2022-11-25T10:42:51;10.88;;;6.22;;
9208;SDS011;4639;48.862;9.188;2022-11-25T10:45:16;10.43;;;6.70;;
9208;SDS011;4639;48.862;9.188;2022-11-25T10:48:00;9.80;;;6.43;;
9208;SDS011;4639;48.862;9.188;2022-11-25T10:51:00;14.90;;;7.20;;
9208;SDS011;4639;48.862;9.188;2022-11-25T10:53:33;11.88;;;6.90;;
9208;SDS011;4639;48.862;9.188;2022-11-25T10:56:03;10.75;;;6.43;;
9208;SDS011;4639;48.862;9.188;2022-11-25T10:58:41;11.15;;;6.38;;
9208;SDS011;4639;48.862;9.188;2022-11-25T11:01:19;15.20;;;6.78;;
9208;SDS011;4639;48.862;9.188;2022-11-25T11:04:03;9.13;;;6.28;;
9208;SDS011;4639;48.862;9.188;2022-11-25T11:06:36;11.85;;;7.18;;
9208;SDS011;4639;48.862;9.188;2022-11-25T11:09:03;11.98;;;6.70;;
9208;SDS011;4639;48.862;9.188;2022-11-25T11:11:29;15.20;;;6.65;;
9208;SDS011;4639;48.862;9.188;2022-11-25T11:16:39;9.52;;;5.85;;
9208;SDS011;4639;48.862;9.188;2022-11-25T11:19:17;10.77;;;6.65;;
9208;SDS011;4639;48.862;9.188;2022-11-25T11:21:45;13.82;;;7.63;;
9208;SDS011;4639;48.862;9.188;2022-11-25T11:29:46;10.25;;;7.65;;
9208;SDS011;4639;48.862;9.188;2022-11-25T11:32:29;15.18;;;8.38;;
9208;SDS011;4639;48.862;9.188;2022-11-25T11:35:00;15.95;;;9.80;;
9208;SDS011;4639;48.862;9.188;2022-11-25T11:42:51;9.27;;;5.18;;
9208;SDS011;4639;48.862;9.188;2022-11-25T11:48:26;7.18;;;4.07;;
9208;SDS011;4639;48.862;9.188;2022-11-25T11:51:05;10.98;;;5.15;;
9208;SDS011;4639;48.862;9.188;2022-11-25T11:53:46;12.20;;;6.00;;
9208;SDS011;4639;48.862;9.188;2022-11-25T11:56:34;6.72;;;4.10;;
9208;SDS011;4639;48.862;9.188;2022-11-25T12:04:42;10.55;;;4.90;;
9208;SDS011;4639;48.862;9.188;2022-11-25T12:12:39;13.43;;;5.10;;
9208;SDS011;4639;48.862;9.188;2022-11-25T12:15:19;12.02;;;4.97;;
9208;SDS011;4639;48.862;9.188;2022-11-25T12:17:47;10.32;;;7.25;;
9208;SDS011;4639;48.862;9.188;2022-11-25T12:23:55;14.07;;;6.25;;
9208;SDS011;4639;48.862;9.188;2022-11-25T12:26:14;8.15;;;5.10;;
9208;SDS011;4639;48.862;9.188;2022-11-25T12:28:47;14.02;;;5.80;;
9208;SDS011;4639;48.862;9.188;2022-11-25T12:31:23;10.65;;;4.78;;
9208;SDS011;4639;48.862;9.188;2022-11-25T12:33:56;10.85;;;5.03;;
9208;SDS011;4639;48.862;9.188;2022-11-25T12:36:32;7.18;;;4.57;;
9208;SDS011;4639;48.862;9.188;2022-11-25T12:39:04;8.88;;;4.47;;
9208;SDS011;4639;48.862;9.188;2022-11-25T12:42:11;10.80;;;5.28;;
9208;SDS011;4639;48.862;9.188;2022-11-25T12:44:58;10.45;;;5.53;;
9208;SDS011;4639;48.862;9.188;2022-11-25T12:47:25;8.75;;;5.05;;
9208;SDS011;4639;48.862;9.188;2022-11-25T12:49:51;12.63;;;5.43;;
9208;SDS011;4639;48.862;9.188;2022-11-25T13:10:05;11.18;;;6.30;;
9208;SDS011;4639;48.862;9.188;2022-11-25T13:12:45;9.93;;;7.63;;
9208;SDS011;4639;48.862;9.188;2022-11-25T13:15:26;16.05;;;7.40;;
9208;SDS011;4639;48.862;9.188;2022-11-25T13:17:59;10.07;;;4.72;;
9208;SDS011;4639;48.862;9.188;2022-11-25T13:23:00;9.77;;;5.15;;
9208;SDS011;4639;48.862;9.188;2022-11-25T13:25:30;12.48;;;4.93;;
9208;SDS011;4639;48.862;9.188;2022-11-25T13:27:57;14.18;;;5.85;;
9208;SDS011;4639;48.862;9.188;2022-11-25T13:32:55;18.45;;;6.10;;
9208;SDS011;4639;48.862;9.188;2022-11-25T13:37:50;30.80;;;17.45;;
9208;SDS011;4639;48.862;9.188;2022-11-25T13:42:56;15.40;;;6.90;;
9208;SDS011;4639;48.862;9.188;2022-11-25T13:45:29;22.08;;;8.18;;
9208;SDS011;4639;48.862;9.188;2022-11-25T13:48:04;21.52;;;13.60;;
9208;SDS011;4639;48.862;9.188;2022-11-25T13:50:35;18.13;;;8.98;;
9208;SDS011;4639;48.862;9.188;2022-11-25T13:53:22;11.82;;;6.82;;
9208;SDS011;4639;48.862;9.188;2022-11-25T14:01:33;9.05;;;3.40;;
9208;SDS011;4639;48.862;9.188;2022-11-25T14:03:59;9.25;;;3.38;;
9208;SDS011;4639;48.862;9.188;2022-11-25T14:06:42;6.93;;;3.38;;
9208;SDS011;4639;48.862;9.188;2022-11-25T14:12:21;9.32;;;3.55;;
9208;SDS011;4639;48.862;9.188;2022-11-25T14:14:55;5.53;;;2.80;;
9208;SDS011;4639;48.862;9.188;2022-11-25T14:20:32;10.10;;;2.63;;
9208;SDS011;4639;48.862;9.188;2022-11-25T14:25:47;9.55;;;2.78;;
9208;SDS011;4639;48.862;9.188;2022-11-25T14:28:32;10.30;;;5.35;;
9208;SDS011;4639;48.862;9.188;2022-11-25T14:31:05;6.93;;;3.47;;
9208;SDS011;4639;48.862;9.188;2022-11-25T14:33:54;11.63;;;6.45;;
9208;SDS011;4639;48.862;9.188;2022-11-25T14:36:29;16.17;;;11.73;;
9208;SDS011;4639;48.862;9.188;2022-11-25T14:39:20;14.75;;;5.82;;
9208;SDS011;4639;48.862;9.188;2022-11-25T14:42:03;10.48;;;4.15;;
9208;SDS011;4639;48.862;9.188;2022-11-25T14:44:34;13.18;;;5.22;;
9208;SDS011;4639;48.862;9.188;2022-11-25T14:47:14;7.57;;;3.17;;
9208;SDS011;4639;48.862;9.188;2022-11-25T14:49:48;8.10;;;3.35;;
9208;SDS011;4639;48.862;9.188;2022-11-25T14:52:38;9.88;;;2.78;;
9208;SDS011;4639;48.862;9.188;2022-11-25T14:55:04;11.10;;;2.92;;
9208;SDS011;4639;48.862;9.188;2022-11-25T14:57:38;8.30;;;2.78;;
9208;SDS011;4639;48.862;9.188;2022-11-25T15:00:09;49.65;;;31.65;;
9208;SDS011;4639;48.862;9.188;2022-11-25T15:02:38;12.80;;;6.95;;
9208;SDS011;4639;48.862;9.188;2022-11-25T15:07:39;8.95;;;2.83;;
9208;SDS011;4639;48.862;9.188;2022-11-25T15:10:06;7.75;;;2.95;;
9208;SDS011;4639;48.862;9.188;2022-11-25T15:12:52;10.15;;;3.65;;
9208;SDS011;4639;48.862;9.188;2022-11-25T15:15:17;9.55;;;3.10;;
9208;SDS011;4639;48.862;9.188;2022-11-25T15:17:43;10.38;;;3.45;;
9208;SDS011;4639;48.862;9.188;2022-11-25T15:20:13;7.80;;;2.85;;
9208;SDS011;4639;48.862;9.188;2022-11-25T15:22:44;11.77;;;3.58;;
9208;SDS011;4639;48.862;9.188;2022-11-25T15:25:13;7.38;;;3.15;;
9208;SDS011;4639;48.862;9.188;2022-11-25T15:27:43;9.15;;;3.65;;
9208;SDS011;4639;48.862;9.188;2022-11-25T15:30:26;7.75;;;3.03;;
9208;SDS011;4639;48.862;9.188;2022-11-25T15:32:53;9.82;;;3.05;;
9208;SDS011;4639;48.862;9.188;2022-11-25T15:35:21;13.10;;;4.05;;
9208;SDS011;4639;48.862;9.188;2022-11-25T15:37:48;12.32;;;4.90;;
9208;SDS011;4639;48.862;9.188;2022-11-25T15:43:01;13.23;;;4.15;;
9208;SDS011;4639;48.862;9.188;2022-11-25T15:45:50;11.18;;;3.05;;
9208;SDS011;4639;48.862;9.188;2022-11-25T15:48:23;10.70;;;3.22;;
9208;SDS011;4639;48.862;9.188;2022-11-25T15:50:56;13.30;;;5.65;;
9208;SDS011;4639;48.862;9.188;2022-11-25T15:53:27;11.75;;;4.60;;
9208;SDS011;4639;48.862;9.188;2022-11-25T15:55:58;12.90;;;4.57;;
9208;SDS011;4639;48.862;9.188;2022-11-25T15:58:25;16.23;;;3.97;;
9208;SDS011;4639;48.862;9.188;2022-11-25T16:01:14;13.35;;;3.95;;
9208;SDS011;4639;48.862;9.188;2022-11-25T16:03:46;12.23;;;4.30;;
9208;SDS011;4639;48.862;9.188;2022-11-25T16:06:23;14.63;;;5.13;;
9208;SDS011;4639;48.862;9.188;2022-11-25T16:09:00;13.10;;;5.38;;
9208;SDS011;4639;48.862;9.188;2022-11-25T16:11:29;13.27;;;4.93;;
9208;SDS011;4639;48.862;9.188;2022-11-25T16:14:27;7.53;;;4.10;;
9208;SDS011;4639;48.862;9.188;2022-11-25T16:17:01;12.25;;;3.60;;
9208;SDS011;4639;48.862;9.188;2022-11-25T16:19:30;10.27;;;4.90;;
9208;SDS011;4639;48.862;9.188;2022-11-25T16:21:59;13.30;;;4.47;;
9208;SDS011;4639;48.862;9.188;2022-11-25T16:24:30;12.77;;;3.80;;
9208;SDS011;4639;48.862;9.188;2022-11-25T16:27:00;10.25;;;3.78;;
9208;SDS011;4639;48.862;9.188;2022-11-25T16:32:17;11.00;;;4.43;;
9208;SDS011;4639;48.862;9.188;2022-11-25T16:34:50;13.93;;;5.57;;
9208;SDS011;4639;48.862;9.188;2022-11-25T16:37:16;16.15;;;6.80;;
9208;SDS011;4639;48.862;9.188;2022-11-25T16:39:42;13.57;;;4.38;;
9208;SDS011;4639;48.862;9.188;2022-11-25T16:42:12;16.70;;;5.05;;
9208;SDS011;4639;48.862;9.188;2022-11-25T16:44:45;15.15;;;4.70;;
9208;SDS011;4639;48.862;9.188;2022-11-25T16:47:13;16.00;;;4.30;;
9208;SDS011;4639;48.862;9.188;2022-11-25T16:49:39;12.00;;;3.75;;
9208;SDS011;4639;48.862;9.188;2022-11-25T16:52:04;14.52;;;4.78;;
9208;SDS011;4639;48.862;9.188;2022-11-25T16:54:30;18.13;;;6.35;;